sensor_id;sensor_type;location;lat;lon;timestamp;P1;durP1;ratioP1;P2;durP2;ratioP2
11338;SDS011;5724;42.684;23.252;2023-03-04T00:00:07;17.63;;;15.90;;
11338;SDS011;5724;42.684;23.252;2023-03-04T00:02:33;18.00;;;16.13;;
11338;SDS011;5724;42.684;23.252;2023-03-04T00:04:59;17.80;;;16.00;;
11338;SDS011;5724;42.684;23.252;2023-03-04T00:07:24;19.03;;;17.13;;
11338;SDS011;5724;42.684;23.252;2023-03-04T00:09:49;20.40;;;18.30;;
11338;SDS011;5724;42.684;23.252;2023-03-04T00:12:15;17.97;;;16.17;;
11338;SDS011;5724;42.684;23.252;2023-03-04T00:14:40;18.80;;;16.77;;
11338;SDS011;5724;42.684;23.252;2023-03-04T00:17:06;18.13;;;16.17;;
11338;SDS011;5724;42.684;23.252;2023-03-04T00:19:31;17.20;;;15.57;;
11338;SDS011;5724;42.684;23.252;2023-03-04T00:21:57;18.80;;;16.93;;
11338;SDS011;5724;42.684;23.252;2023-03-04T00:24:22;17.63;;;15.93;;
11338;SDS011;5724;42.684;23.252;2023-03-04T00:26:49;17.30;;;15.67;;
11338;SDS011;5724;42.684;23.252;2023-03-04T00:29:14;16.60;;;15.00;;
11338;SDS011;5724;42.684;23.252;2023-03-04T00:31:40;16.00;;;14.47;;
11338;SDS011;5724;42.684;23.252;2023-03-04T00:34:05;16.50;;;14.90;;
11338;SDS011;5724;42.684;23.252;2023-03-04T00:36:31;15.77;;;14.27;;
11338;SDS011;5724;42.684;23.252;2023-03-04T00:38:56;15.47;;;14.07;;
11338;SDS011;5724;42.684;23.252;2023-03-04T00:41:22;16.20;;;14.53;;
11338;SDS011;5724;42.684;23.252;2023-03-04T00:43:47;15.67;;;14.17;;
11338;SDS011;5724;42.684;23.252;2023-03-04T00:46:13;16.33;;;14.70;;
11338;SDS011;5724;42.684;23.252;2023-03-04T00:48:38;16.30;;;14.67;;
11338;SDS011;5724;42.684;23.252;2023-03-04T00:51:04;16.70;;;15.10;;
11338;SDS011;5724;42.684;23.252;2023-03-04T00:53:30;16.73;;;15.03;;
11338;SDS011;5724;42.684;23.252;2023-03-04T00:55:55;16.40;;;14.57;;
11338;SDS011;5724;42.684;23.252;2023-03-04T00:58:20;16.83;;;15.20;;
11338;SDS011;5724;42.684;23.252;2023-03-04T01:00:46;16.70;;;15.00;;
11338;SDS011;5724;42.684;23.252;2023-03-04T01:03:11;17.03;;;15.33;;
11338;SDS011;5724;42.684;23.252;2023-03-04T01:05:37;17.53;;;15.73;;
11338;SDS011;5724;42.684;23.252;2023-03-04T01:08:03;18.43;;;16.53;;
11338;SDS011;5724;42.684;23.252;2023-03-04T01:10:29;16.73;;;15.13;;
11338;SDS011;5724;42.684;23.252;2023-03-04T01:12:55;17.80;;;16.00;;
11338;SDS011;5724;42.684;23.252;2023-03-04T01:15:20;16.10;;;14.47;;
11338;SDS011;5724;42.684;23.252;2023-03-04T01:17:46;17.50;;;15.53;;
11338;SDS011;5724;42.684;23.252;2023-03-04T01:20:12;17.20;;;15.50;;
11338;SDS011;5724;42.684;23.252;2023-03-04T01:22:38;17.13;;;15.43;;
11338;SDS011;5724;42.684;23.252;2023-03-04T01:25:04;18.27;;;16.10;;
11338;SDS011;5724;42.684;23.252;2023-03-04T01:27:30;17.23;;;15.53;;
11338;SDS011;5724;42.684;23.252;2023-03-04T01:29:55;18.37;;;16.47;;
11338;SDS011;5724;42.684;23.252;2023-03-04T01:32:21;17.57;;;15.73;;
11338;SDS011;5724;42.684;23.252;2023-03-04T01:34:46;16.20;;;14.50;;
11338;SDS011;5724;42.684;23.252;2023-03-04T01:37:12;17.73;;;15.60;;
11338;SDS011;5724;42.684;23.252;2023-03-04T01:39:40;17.67;;;15.80;;
11338;SDS011;5724;42.684;23.252;2023-03-04T01:42:06;17.63;;;15.83;;
11338;SDS011;5724;42.684;23.252;2023-03-04T01:44:42;16.93;;;15.23;;
11338;SDS011;5724;42.684;23.252;2023-03-04T01:47:09;17.83;;;16.03;;
11338;SDS011;5724;42.684;23.252;2023-03-04T01:49:35;18.20;;;15.97;;
11338;SDS011;5724;42.684;23.252;2023-03-04T01:52:00;17.27;;;15.47;;
11338;SDS011;5724;42.684;23.252;2023-03-04T01:54:26;17.50;;;15.63;;
11338;SDS011;5724;42.684;23.252;2023-03-04T01:56:51;17.20;;;15.40;;
11338;SDS011;5724;42.684;23.252;2023-03-04T01:59:18;18.30;;;16.07;;
11338;SDS011;5724;42.684;23.252;2023-03-04T02:01:52;18.97;;;16.63;;
11338;SDS011;5724;42.684;23.252;2023-03-04T02:04:23;18.70;;;16.73;;
11338;SDS011;5724;42.684;23.252;2023-03-04T02:06:51;18.10;;;16.30;;
11338;SDS011;5724;42.684;23.252;2023-03-04T02:09:17;18.60;;;16.13;;
11338;SDS011;5724;42.684;23.252;2023-03-04T02:11:45;17.60;;;15.97;;
11338;SDS011;5724;42.684;23.252;2023-03-04T02:14:12;18.97;;;16.97;;
11338;SDS011;5724;42.684;23.252;2023-03-04T02:16:39;18.73;;;16.83;;
11338;SDS011;5724;42.684;23.252;2023-03-04T02:21:52;18.17;;;16.23;;
11338;SDS011;5724;42.684;23.252;2023-03-04T02:24:31;19.43;;;16.50;;
11338;SDS011;5724;42.684;23.252;2023-03-04T02:26:59;18.73;;;16.43;;
11338;SDS011;5724;42.684;23.252;2023-03-04T02:29:24;18.27;;;16.27;;
11338;SDS011;5724;42.684;23.252;2023-03-04T02:31:50;18.03;;;16.13;;
11338;SDS011;5724;42.684;23.252;2023-03-04T02:34:21;17.60;;;15.83;;
11338;SDS011;5724;42.684;23.252;2023-03-04T02:36:50;18.70;;;16.70;;
11338;SDS011;5724;42.684;23.252;2023-03-04T02:41:50;18.97;;;16.57;;
11338;SDS011;5724;42.684;23.252;2023-03-04T02:44:18;17.17;;;15.43;;
11338;SDS011;5724;42.684;23.252;2023-03-04T02:46:44;17.47;;;15.47;;
11338;SDS011;5724;42.684;23.252;2023-03-04T02:49:10;19.73;;;16.00;;
11338;SDS011;5724;42.684;23.252;2023-03-04T02:51:36;17.60;;;15.80;;
11338;SDS011;5724;42.684;23.252;2023-03-04T02:54:02;17.57;;;15.20;;
11338;SDS011;5724;42.684;23.252;2023-03-04T02:56:27;16.63;;;14.93;;
11338;SDS011;5724;42.684;23.252;2023-03-04T02:58:53;17.40;;;15.63;;
11338;SDS011;5724;42.684;23.252;2023-03-04T03:01:18;17.57;;;15.77;;
11338;SDS011;5724;42.684;23.252;2023-03-04T03:03:44;18.43;;;16.47;;
11338;SDS011;5724;42.684;23.252;2023-03-04T03:06:09;21.00;;;17.37;;
11338;SDS011;5724;42.684;23.252;2023-03-04T03:08:34;18.97;;;16.57;;
11338;SDS011;5724;42.684;23.252;2023-03-04T03:11:00;18.50;;;16.00;;
11338;SDS011;5724;42.684;23.252;2023-03-04T03:13:26;15.07;;;13.47;;
11338;SDS011;5724;42.684;23.252;2023-03-04T03:15:53;12.80;;;11.50;;
11338;SDS011;5724;42.684;23.252;2023-03-04T03:18:18;14.97;;;13.57;;
11338;SDS011;5724;42.684;23.252;2023-03-04T03:20:44;12.17;;;11.07;;
11338;SDS011;5724;42.684;23.252;2023-03-04T03:23:09;12.83;;;11.53;;
11338;SDS011;5724;42.684;23.252;2023-03-04T03:25:35;12.53;;;10.57;;
11338;SDS011;5724;42.684;23.252;2023-03-04T03:28:00;12.17;;;10.97;;
11338;SDS011;5724;42.684;23.252;2023-03-04T03:30:26;10.23;;;9.33;;
11338;SDS011;5724;42.684;23.252;2023-03-04T03:32:51;24.17;;;19.03;;
11338;SDS011;5724;42.684;23.252;2023-03-04T03:35:17;30.53;;;23.27;;
11338;SDS011;5724;42.684;23.252;2023-03-04T03:37:42;54.90;;;37.30;;
11338;SDS011;5724;42.684;23.252;2023-03-04T03:40:08;40.93;;;29.17;;
11338;SDS011;5724;42.684;23.252;2023-03-04T03:42:34;31.37;;;25.00;;
11338;SDS011;5724;42.684;23.252;2023-03-04T03:45:00;34.17;;;25.10;;
11338;SDS011;5724;42.684;23.252;2023-03-04T03:47:25;28.67;;;22.57;;
11338;SDS011;5724;42.684;23.252;2023-03-04T03:49:50;19.77;;;15.93;;
11338;SDS011;5724;42.684;23.252;2023-03-04T03:52:16;16.67;;;14.77;;
11338;SDS011;5724;42.684;23.252;2023-03-04T03:54:41;18.30;;;14.97;;
11338;SDS011;5724;42.684;23.252;2023-03-04T03:57:07;17.67;;;15.83;;
11338;SDS011;5724;42.684;23.252;2023-03-04T03:59:32;17.00;;;15.27;;
11338;SDS011;5724;42.684;23.252;2023-03-04T04:01:58;19.07;;;16.00;;
11338;SDS011;5724;42.684;23.252;2023-03-04T04:04:23;17.87;;;15.97;;
11338;SDS011;5724;42.684;23.252;2023-03-04T04:06:49;17.57;;;15.73;;
11338;SDS011;5724;42.684;23.252;2023-03-04T04:09:14;17.27;;;15.47;;
11338;SDS011;5724;42.684;23.252;2023-03-04T04:11:40;19.67;;;16.53;;
11338;SDS011;5724;42.684;23.252;2023-03-04T04:14:05;18.93;;;17.03;;
11338;SDS011;5724;42.684;23.252;2023-03-04T04:16:31;17.70;;;15.60;;
11338;SDS011;5724;42.684;23.252;2023-03-04T04:18:56;20.50;;;17.30;;
11338;SDS011;5724;42.684;23.252;2023-03-04T04:21:22;17.87;;;16.07;;
11338;SDS011;5724;42.684;23.252;2023-03-04T04:23:48;18.90;;;16.93;;
11338;SDS011;5724;42.684;23.252;2023-03-04T04:26:13;19.43;;;16.47;;
11338;SDS011;5724;42.684;23.252;2023-03-04T04:28:39;17.17;;;15.37;;
11338;SDS011;5724;42.684;23.252;2023-03-04T04:31:07;17.20;;;15.50;;
11338;SDS011;5724;42.684;23.252;2023-03-04T04:33:33;17.97;;;15.80;;
11338;SDS011;5724;42.684;23.252;2023-03-04T04:35:59;16.53;;;14.93;;
11338;SDS011;5724;42.684;23.252;2023-03-04T04:38:25;15.47;;;13.83;;
11338;SDS011;5724;42.684;23.252;2023-03-04T04:40:51;16.33;;;13.87;;
11338;SDS011;5724;42.684;23.252;2023-03-04T04:43:17;15.07;;;13.47;;
11338;SDS011;5724;42.684;23.252;2023-03-04T04:45:42;15.57;;;14.07;;
11338;SDS011;5724;42.684;23.252;2023-03-04T04:48:08;16.27;;;14.63;;
11338;SDS011;5724;42.684;23.252;2023-03-04T04:50:33;14.30;;;12.70;;
11338;SDS011;5724;42.684;23.252;2023-03-04T04:52:59;13.93;;;12.63;;
11338;SDS011;5724;42.684;23.252;2023-03-04T04:55:24;13.17;;;11.57;;
11338;SDS011;5724;42.684;23.252;2023-03-04T04:57:50;10.73;;;9.70;;
11338;SDS011;5724;42.684;23.252;2023-03-04T05:00:15;10.87;;;9.90;;
11338;SDS011;5724;42.684;23.252;2023-03-04T05:02:43;15.50;;;13.23;;
11338;SDS011;5724;42.684;23.252;2023-03-04T05:05:08;16.03;;;12.50;;
11338;SDS011;5724;42.684;23.252;2023-03-04T05:07:34;12.80;;;11.50;;
11338;SDS011;5724;42.684;23.252;2023-03-04T05:10:00;10.47;;;9.57;;
11338;SDS011;5724;42.684;23.252;2023-03-04T05:12:26;11.97;;;10.80;;
11338;SDS011;5724;42.684;23.252;2023-03-04T05:14:51;10.77;;;9.70;;
11338;SDS011;5724;42.684;23.252;2023-03-04T05:17:16;12.10;;;9.63;;
11338;SDS011;5724;42.684;23.252;2023-03-04T05:19:42;10.77;;;9.77;;
11338;SDS011;5724;42.684;23.252;2023-03-04T05:22:07;12.37;;;11.00;;
11338;SDS011;5724;42.684;23.252;2023-03-04T05:24:33;12.60;;;11.40;;
11338;SDS011;5724;42.684;23.252;2023-03-04T05:27:01;12.90;;;11.60;;
11338;SDS011;5724;42.684;23.252;2023-03-04T05:29:27;12.03;;;10.87;;
11338;SDS011;5724;42.684;23.252;2023-03-04T05:31:52;16.97;;;13.73;;
11338;SDS011;5724;42.684;23.252;2023-03-04T05:34:18;13.70;;;12.30;;
11338;SDS011;5724;42.684;23.252;2023-03-04T05:36:43;15.43;;;13.17;;
11338;SDS011;5724;42.684;23.252;2023-03-04T05:39:09;14.83;;;13.33;;
11338;SDS011;5724;42.684;23.252;2023-03-04T05:41:34;17.87;;;15.17;;
11338;SDS011;5724;42.684;23.252;2023-03-04T05:44:00;20.43;;;16.73;;
11338;SDS011;5724;42.684;23.252;2023-03-04T05:46:25;19.70;;;17.20;;
11338;SDS011;5724;42.684;23.252;2023-03-04T05:48:51;14.40;;;12.70;;
11338;SDS011;5724;42.684;23.252;2023-03-04T05:51:18;13.73;;;12.33;;
11338;SDS011;5724;42.684;23.252;2023-03-04T05:53:44;14.20;;;12.70;;
11338;SDS011;5724;42.684;23.252;2023-03-04T05:56:14;14.47;;;13.03;;
11338;SDS011;5724;42.684;23.252;2023-03-04T05:58:42;15.77;;;14.17;;
11338;SDS011;5724;42.684;23.252;2023-03-04T06:01:08;14.87;;;13.33;;
11338;SDS011;5724;42.684;23.252;2023-03-04T06:03:34;15.77;;;14.33;;
11338;SDS011;5724;42.684;23.252;2023-03-04T06:05:59;17.23;;;15.10;;
11338;SDS011;5724;42.684;23.252;2023-03-04T06:08:25;18.77;;;15.47;;
11338;SDS011;5724;42.684;23.252;2023-03-04T06:10:53;19.80;;;17.17;;
11338;SDS011;5724;42.684;23.252;2023-03-04T06:13:20;20.30;;;18.20;;
11338;SDS011;5724;42.684;23.252;2023-03-04T06:15:45;17.60;;;15.77;;
11338;SDS011;5724;42.684;23.252;2023-03-04T06:18:11;24.90;;;18.90;;
11338;SDS011;5724;42.684;23.252;2023-03-04T06:20:36;19.20;;;17.20;;
11338;SDS011;5724;42.684;23.252;2023-03-04T06:23:02;19.33;;;17.23;;
11338;SDS011;5724;42.684;23.252;2023-03-04T06:25:28;20.57;;;18.37;;
11338;SDS011;5724;42.684;23.252;2023-03-04T06:27:54;26.50;;;22.80;;
11338;SDS011;5724;42.684;23.252;2023-03-04T06:30:20;25.60;;;22.90;;
11338;SDS011;5724;42.684;23.252;2023-03-04T06:32:45;25.10;;;22.60;;
11338;SDS011;5724;42.684;23.252;2023-03-04T06:35:12;29.03;;;25.90;;
11338;SDS011;5724;42.684;23.252;2023-03-04T06:37:38;20.27;;;18.27;;
11338;SDS011;5724;42.684;23.252;2023-03-04T06:40:04;18.47;;;16.50;;
11338;SDS011;5724;42.684;23.252;2023-03-04T06:42:32;16.37;;;14.47;;
11338;SDS011;5724;42.684;23.252;2023-03-04T06:44:57;13.60;;;12.27;;
11338;SDS011;5724;42.684;23.252;2023-03-04T06:47:23;12.63;;;11.53;;
11338;SDS011;5724;42.684;23.252;2023-03-04T06:49:48;14.13;;;12.63;;
11338;SDS011;5724;42.684;23.252;2023-03-04T06:52:14;14.67;;;13.17;;
11338;SDS011;5724;42.684;23.252;2023-03-04T06:54:39;13.77;;;12.37;;
11338;SDS011;5724;42.684;23.252;2023-03-04T06:57:05;13.00;;;11.77;;
11338;SDS011;5724;42.684;23.252;2023-03-04T06:59:31;12.17;;;11.03;;
11338;SDS011;5724;42.684;23.252;2023-03-04T07:01:57;12.43;;;11.23;;
11338;SDS011;5724;42.684;23.252;2023-03-04T07:04:22;16.13;;;13.40;;
11338;SDS011;5724;42.684;23.252;2023-03-04T07:06:48;15.20;;;12.10;;
11338;SDS011;5724;42.684;23.252;2023-03-04T07:09:15;14.03;;;12.63;;
11338;SDS011;5724;42.684;23.252;2023-03-04T07:11:41;14.87;;;12.30;;
11338;SDS011;5724;42.684;23.252;2023-03-04T07:14:07;12.67;;;11.37;;
11338;SDS011;5724;42.684;23.252;2023-03-04T07:16:33;11.50;;;10.30;;
11338;SDS011;5724;42.684;23.252;2023-03-04T07:18:58;13.40;;;12.00;;
11338;SDS011;5724;42.684;23.252;2023-03-04T07:21:24;12.70;;;11.40;;
11338;SDS011;5724;42.684;23.252;2023-03-04T07:23:50;13.73;;;11.60;;
11338;SDS011;5724;42.684;23.252;2023-03-04T07:26:16;11.73;;;10.60;;
11338;SDS011;5724;42.684;23.252;2023-03-04T07:28:41;14.53;;;12.03;;
11338;SDS011;5724;42.684;23.252;2023-03-04T07:31:21;12.57;;;11.10;;
11338;SDS011;5724;42.684;23.252;2023-03-04T07:33:49;13.50;;;12.10;;
11338;SDS011;5724;42.684;23.252;2023-03-04T07:36:16;11.17;;;10.17;;
11338;SDS011;5724;42.684;23.252;2023-03-04T07:38:47;15.60;;;10.93;;
11338;SDS011;5724;42.684;23.252;2023-03-04T07:41:13;12.27;;;10.70;;
11338;SDS011;5724;42.684;23.252;2023-03-04T07:43:39;14.70;;;12.03;;
11338;SDS011;5724;42.684;23.252;2023-03-04T07:46:05;13.27;;;12.07;;
11338;SDS011;5724;42.684;23.252;2023-03-04T07:48:31;14.57;;;12.33;;
11338;SDS011;5724;42.684;23.252;2023-03-04T07:53:29;12.40;;;11.10;;
11338;SDS011;5724;42.684;23.252;2023-03-04T07:55:56;14.60;;;11.73;;
11338;SDS011;5724;42.684;23.252;2023-03-04T07:58:21;17.27;;;12.30;;
11338;SDS011;5724;42.684;23.252;2023-03-04T08:00:46;12.37;;;11.03;;
11338;SDS011;5724;42.684;23.252;2023-03-04T08:03:12;12.00;;;11.00;;
11338;SDS011;5724;42.684;23.252;2023-03-04T08:05:38;10.40;;;9.17;;
11338;SDS011;5724;42.684;23.252;2023-03-04T08:08:04;13.10;;;11.17;;
11338;SDS011;5724;42.684;23.252;2023-03-04T08:10:29;12.77;;;11.13;;
11338;SDS011;5724;42.684;23.252;2023-03-04T08:12:55;12.13;;;10.93;;
11338;SDS011;5724;42.684;23.252;2023-03-04T08:15:20;10.90;;;9.87;;
11338;SDS011;5724;42.684;23.252;2023-03-04T08:17:45;11.40;;;10.40;;
11338;SDS011;5724;42.684;23.252;2023-03-04T08:20:11;15.83;;;11.87;;
11338;SDS011;5724;42.684;23.252;2023-03-04T08:22:37;12.87;;;11.47;;
11338;SDS011;5724;42.684;23.252;2023-03-04T08:25:02;14.83;;;12.20;;
11338;SDS011;5724;42.684;23.252;2023-03-04T08:27:28;12.93;;;11.73;;
11338;SDS011;5724;42.684;23.252;2023-03-04T08:29:53;14.33;;;10.80;;
11338;SDS011;5724;42.684;23.252;2023-03-04T08:32:19;11.87;;;10.00;;
11338;SDS011;5724;42.684;23.252;2023-03-04T08:34:45;12.07;;;10.70;;
11338;SDS011;5724;42.684;23.252;2023-03-04T08:37:11;9.73;;;8.83;;
11338;SDS011;5724;42.684;23.252;2023-03-04T08:39:36;9.87;;;8.80;;
11338;SDS011;5724;42.684;23.252;2023-03-04T08:42:02;9.63;;;8.57;;
11338;SDS011;5724;42.684;23.252;2023-03-04T08:44:27;9.53;;;8.70;;
11338;SDS011;5724;42.684;23.252;2023-03-04T08:46:53;9.67;;;8.70;;
11338;SDS011;5724;42.684;23.252;2023-03-04T08:49:18;9.73;;;8.83;;
11338;SDS011;5724;42.684;23.252;2023-03-04T08:51:44;11.53;;;8.70;;
11338;SDS011;5724;42.684;23.252;2023-03-04T08:54:10;9.23;;;8.10;;
11338;SDS011;5724;42.684;23.252;2023-03-04T08:56:35;8.43;;;7.73;;
11338;SDS011;5724;42.684;23.252;2023-03-04T08:59:02;8.17;;;7.37;;
11338;SDS011;5724;42.684;23.252;2023-03-04T09:01:27;8.57;;;6.93;;
11338;SDS011;5724;42.684;23.252;2023-03-04T09:03:53;10.17;;;6.40;;
11338;SDS011;5724;42.684;23.252;2023-03-04T09:06:18;10.00;;;7.30;;
11338;SDS011;5724;42.684;23.252;2023-03-04T09:08:44;8.93;;;7.17;;
11338;SDS011;5724;42.684;23.252;2023-03-04T09:11:10;7.93;;;7.23;;
11338;SDS011;5724;42.684;23.252;2023-03-04T09:13:36;8.40;;;7.60;;
11338;SDS011;5724;42.684;23.252;2023-03-04T09:16:02;9.63;;;8.67;;
11338;SDS011;5724;42.684;23.252;2023-03-04T09:18:32;8.37;;;7.57;;
11338;SDS011;5724;42.684;23.252;2023-03-04T09:20:58;9.37;;;8.53;;
11338;SDS011;5724;42.684;23.252;2023-03-04T09:23:23;9.47;;;8.67;;
11338;SDS011;5724;42.684;23.252;2023-03-04T09:25:49;9.32;;;8.50;;
11338;SDS011;5724;42.684;23.252;2023-03-04T09:28:14;9.43;;;8.48;;
11338;SDS011;5724;42.684;23.252;2023-03-04T09:30:41;10.00;;;8.95;;
11338;SDS011;5724;42.684;23.252;2023-03-04T09:33:07;11.18;;;9.73;;
11338;SDS011;5724;42.684;23.252;2023-03-04T09:35:34;10.05;;;9.05;;
11338;SDS011;5724;42.684;23.252;2023-03-04T09:37:59;9.57;;;8.57;;
11338;SDS011;5724;42.684;23.252;2023-03-04T09:40:26;11.60;;;9.95;;
11338;SDS011;5724;42.684;23.252;2023-03-04T09:43:02;9.77;;;8.98;;
11338;SDS011;5724;42.684;23.252;2023-03-04T09:45:36;13.65;;;9.63;;
11338;SDS011;5724;42.684;23.252;2023-03-04T09:48:04;9.60;;;8.70;;
11338;SDS011;5724;42.684;23.252;2023-03-04T09:50:32;11.87;;;10.03;;
11338;SDS011;5724;42.684;23.252;2023-03-04T09:55:33;11.48;;;10.35;;
11338;SDS011;5724;42.684;23.252;2023-03-04T10:00:55;10.80;;;9.90;;
11338;SDS011;5724;42.684;23.252;2023-03-04T10:03:31;11.50;;;10.40;;
11338;SDS011;5724;42.684;23.252;2023-03-04T10:06:15;18.83;;;16.10;;
11338;SDS011;5724;42.684;23.252;2023-03-04T10:14:33;11.45;;;10.30;;
11338;SDS011;5724;42.684;23.252;2023-03-04T10:17:13;11.48;;;10.20;;
11338;SDS011;5724;42.684;23.252;2023-03-04T10:27:39;10.88;;;9.77;;
11338;SDS011;5724;42.684;23.252;2023-03-04T10:33:16;11.90;;;10.25;;
11338;SDS011;5724;42.684;23.252;2023-03-04T10:35:48;10.88;;;9.20;;
11338;SDS011;5724;42.684;23.252;2023-03-04T10:38:18;10.25;;;9.35;;
11338;SDS011;5724;42.684;23.252;2023-03-04T10:40:45;11.65;;;10.48;;
11338;SDS011;5724;42.684;23.252;2023-03-04T10:43:15;11.27;;;10.25;;
11338;SDS011;5724;42.684;23.252;2023-03-04T10:45:45;11.27;;;8.73;;
11338;SDS011;5724;42.684;23.252;2023-03-04T10:48:20;11.60;;;10.52;;
11338;SDS011;5724;42.684;23.252;2023-03-04T10:50:48;12.80;;;10.73;;
11338;SDS011;5724;42.684;23.252;2023-03-04T10:53:32;17.15;;;11.88;;
11338;SDS011;5724;42.684;23.252;2023-03-04T10:56:03;16.10;;;12.63;;
11338;SDS011;5724;42.684;23.252;2023-03-04T11:02:34;15.47;;;12.23;;
11338;SDS011;5724;42.684;23.252;2023-03-04T11:13:12;14.83;;;12.93;;
11338;SDS011;5724;42.684;23.252;2023-03-04T11:15:53;14.77;;;12.17;;
11338;SDS011;5724;42.684;23.252;2023-03-04T11:21:20;17.90;;;13.17;;
11338;SDS011;5724;42.684;23.252;2023-03-04T11:26:20;14.70;;;13.27;;
11338;SDS011;5724;42.684;23.252;2023-03-04T11:31:22;15.57;;;12.63;;
11338;SDS011;5724;42.684;23.252;2023-03-04T11:36:32;13.63;;;12.13;;
11338;SDS011;5724;42.684;23.252;2023-03-04T11:38:58;15.63;;;13.13;;
11338;SDS011;5724;42.684;23.252;2023-03-04T11:41:34;15.03;;;12.77;;
11338;SDS011;5724;42.684;23.252;2023-03-04T11:44:06;19.33;;;16.05;;
11338;SDS011;5724;42.684;23.252;2023-03-04T11:57:36;15.52;;;13.57;;
11338;SDS011;5724;42.684;23.252;2023-03-04T12:00:33;14.48;;;12.98;;
11338;SDS011;5724;42.684;23.252;2023-03-04T12:08:53;14.32;;;12.93;;
11338;SDS011;5724;42.684;23.252;2023-03-04T12:17:29;21.33;;;19.05;;
11338;SDS011;5724;42.684;23.252;2023-03-04T12:26:05;23.67;;;19.88;;
11338;SDS011;5724;42.684;23.252;2023-03-04T12:31:45;23.23;;;19.45;;
11338;SDS011;5724;42.684;23.252;2023-03-04T12:45:24;24.92;;;20.77;;
11338;SDS011;5724;42.684;23.252;2023-03-04T12:47:55;27.83;;;22.08;;
11338;SDS011;5724;42.684;23.252;2023-03-04T12:50:30;23.10;;;19.70;;
11338;SDS011;5724;42.684;23.252;2023-03-04T12:53:20;25.30;;;18.33;;
11338;SDS011;5724;42.684;23.252;2023-03-04T12:56:09;23.17;;;18.50;;
11338;SDS011;5724;42.684;23.252;2023-03-04T12:58:53;20.08;;;16.50;;
11338;SDS011;5724;42.684;23.252;2023-03-04T13:01:41;20.70;;;17.25;;
11338;SDS011;5724;42.684;23.252;2023-03-04T13:12:16;28.38;;;22.95;;
11338;SDS011;5724;42.684;23.252;2023-03-04T13:15:24;26.17;;;20.73;;
11338;SDS011;5724;42.684;23.252;2023-03-04T13:43:39;37.60;;;33.03;;
11338;SDS011;5724;42.684;23.252;2023-03-04T13:48:42;55.58;;;49.47;;
11338;SDS011;5724;42.684;23.252;2023-03-04T13:51:14;54.20;;;45.65;;
11338;SDS011;5724;42.684;23.252;2023-03-04T13:59:07;30.08;;;25.10;;
11338;SDS011;5724;42.684;23.252;2023-03-04T14:04:37;43.00;;;34.10;;
11338;SDS011;5724;42.684;23.252;2023-03-04T14:07:00;32.97;;;27.55;;
11338;SDS011;5724;42.684;23.252;2023-03-04T14:09:32;55.50;;;35.95;;
11338;SDS011;5724;42.684;23.252;2023-03-04T14:12:03;103.57;;;62.75;;
11338;SDS011;5724;42.684;23.252;2023-03-04T14:14:42;39.60;;;29.67;;
11338;SDS011;5724;42.684;23.252;2023-03-04T14:17:21;70.63;;;41.45;;
11338;SDS011;5724;42.684;23.252;2023-03-04T14:19:50;54.40;;;33.50;;
11338;SDS011;5724;42.684;23.252;2023-03-04T14:22:18;26.90;;;20.13;;
11338;SDS011;5724;42.684;23.252;2023-03-04T14:27:21;22.83;;;18.70;;
11338;SDS011;5724;42.684;23.252;2023-03-04T14:29:53;22.77;;;17.70;;
11338;SDS011;5724;42.684;23.252;2023-03-04T14:32:23;24.42;;;18.30;;
11338;SDS011;5724;42.684;23.252;2023-03-04T14:34:49;21.33;;;18.50;;
11338;SDS011;5724;42.684;23.252;2023-03-04T14:37:24;21.00;;;18.02;;
11338;SDS011;5724;42.684;23.252;2023-03-04T14:40:00;25.27;;;19.42;;
11338;SDS011;5724;42.684;23.252;2023-03-04T14:42:32;24.58;;;21.83;;
11338;SDS011;5724;42.684;23.252;2023-03-04T14:45:04;20.98;;;18.42;;
11338;SDS011;5724;42.684;23.252;2023-03-04T14:47:39;26.98;;;18.92;;
11338;SDS011;5724;42.684;23.252;2023-03-04T14:50:13;25.60;;;20.13;;
11338;SDS011;5724;42.684;23.252;2023-03-04T14:52:43;26.10;;;22.60;;
11338;SDS011;5724;42.684;23.252;2023-03-04T14:57:38;23.10;;;18.17;;
11338;SDS011;5724;42.684;23.252;2023-03-04T15:02:42;20.17;;;17.27;;
11338;SDS011;5724;42.684;23.252;2023-03-04T15:05:16;17.02;;;15.32;;
11338;SDS011;5724;42.684;23.252;2023-03-04T15:07:48;20.23;;;17.38;;
11338;SDS011;5724;42.684;23.252;2023-03-04T15:10:18;21.45;;;15.27;;
11338;SDS011;5724;42.684;23.252;2023-03-04T15:12:49;16.63;;;14.90;;
11338;SDS011;5724;42.684;23.252;2023-03-04T15:15:30;16.23;;;13.73;;
11338;SDS011;5724;42.684;23.252;2023-03-04T15:18:03;15.68;;;14.15;;
11338;SDS011;5724;42.684;23.252;2023-03-04T15:23:45;15.75;;;14.13;;
11338;SDS011;5724;42.684;23.252;2023-03-04T15:26:11;17.50;;;14.77;;
11338;SDS011;5724;42.684;23.252;2023-03-04T15:28:38;17.58;;;15.63;;
11338;SDS011;5724;42.684;23.252;2023-03-04T15:31:06;18.00;;;16.20;;
11338;SDS011;5724;42.684;23.252;2023-03-04T15:33:42;19.48;;;16.92;;
11338;SDS011;5724;42.684;23.252;2023-03-04T15:36:09;19.02;;;14.93;;
11338;SDS011;5724;42.684;23.252;2023-03-04T15:38:39;17.23;;;14.73;;
11338;SDS011;5724;42.684;23.252;2023-03-04T15:41:08;18.88;;;15.55;;
11338;SDS011;5724;42.684;23.252;2023-03-04T15:43:36;17.08;;;15.35;;
11338;SDS011;5724;42.684;23.252;2023-03-04T15:46:02;17.83;;;15.52;;
11338;SDS011;5724;42.684;23.252;2023-03-04T15:48:28;21.10;;;16.30;;
11338;SDS011;5724;42.684;23.252;2023-03-04T15:50:54;34.38;;;27.40;;
11338;SDS011;5724;42.684;23.252;2023-03-04T15:56:31;18.92;;;16.30;;
11338;SDS011;5724;42.684;23.252;2023-03-04T15:59:01;18.92;;;16.88;;
11338;SDS011;5724;42.684;23.252;2023-03-04T16:01:27;23.33;;;16.55;;
11338;SDS011;5724;42.684;23.252;2023-03-04T16:03:52;19.90;;;15.95;;
11338;SDS011;5724;42.684;23.252;2023-03-04T16:06:18;21.33;;;17.30;;
11338;SDS011;5724;42.684;23.252;2023-03-04T16:08:48;21.20;;;17.50;;
11338;SDS011;5724;42.684;23.252;2023-03-04T16:11:17;22.85;;;18.17;;
11338;SDS011;5724;42.684;23.252;2023-03-04T16:13:47;20.23;;;16.63;;
11338;SDS011;5724;42.684;23.252;2023-03-04T16:16:13;22.77;;;17.75;;
11338;SDS011;5724;42.684;23.252;2023-03-04T16:18:39;25.00;;;17.73;;
11338;SDS011;5724;42.684;23.252;2023-03-04T16:21:07;21.60;;;18.05;;
11338;SDS011;5724;42.684;23.252;2023-03-04T16:23:38;22.23;;;18.52;;
11338;SDS011;5724;42.684;23.252;2023-03-04T16:26:10;24.98;;;20.92;;
11338;SDS011;5724;42.684;23.252;2023-03-04T16:28:37;23.73;;;20.70;;
11338;SDS011;5724;42.684;23.252;2023-03-04T16:31:03;25.55;;;21.15;;
11338;SDS011;5724;42.684;23.252;2023-03-04T16:33:29;35.05;;;24.20;;
11338;SDS011;5724;42.684;23.252;2023-03-04T16:35:55;30.30;;;23.15;;
11338;SDS011;5724;42.684;23.252;2023-03-04T16:38:22;27.02;;;22.63;;
11338;SDS011;5724;42.684;23.252;2023-03-04T16:40:53;32.15;;;23.08;;
11338;SDS011;5724;42.684;23.252;2023-03-04T16:43:19;30.67;;;24.88;;
11338;SDS011;5724;42.684;23.252;2023-03-04T16:45:45;28.17;;;24.58;;
11338;SDS011;5724;42.684;23.252;2023-03-04T16:48:11;31.30;;;24.38;;
11338;SDS011;5724;42.684;23.252;2023-03-04T16:50:36;31.03;;;24.57;;
11338;SDS011;5724;42.684;23.252;2023-03-04T16:53:02;32.63;;;27.30;;
11338;SDS011;5724;42.684;23.252;2023-03-04T16:55:29;43.60;;;31.60;;
11338;SDS011;5724;42.684;23.252;2023-03-04T16:57:55;35.38;;;27.00;;
11338;SDS011;5724;42.684;23.252;2023-03-04T17:00:22;32.30;;;25.05;;